sensor_id;sensor_type;location;lat;lon;timestamp;P1;durP1;ratioP1;P2;durP2;ratioP2
37485;SDS011;23341;50.296;18.960;2023-07-20T00:03:33;7.88;;;4.30;;
37485;SDS011;23341;50.296;18.960;2023-07-20T00:08:37;5.70;;;3.45;;
37485;SDS011;23341;50.296;18.960;2023-07-20T00:13:41;4.45;;;3.45;;
37485;SDS011;23341;50.296;18.960;2023-07-20T00:18:46;11.90;;;4.45;;
37485;SDS011;23341;50.296;18.960;2023-07-20T00:23:49;8.68;;;3.67;;
37485;SDS011;23341;50.296;18.960;2023-07-20T00:28:53;5.25;;;3.20;;
37485;SDS011;23341;50.296;18.960;2023-07-20T00:33:58;7.65;;;3.08;;
37485;SDS011;23341;50.296;18.960;2023-07-20T00:39:02;6.43;;;3.58;;
37485;SDS011;23341;50.296;18.960;2023-07-20T00:44:06;8.18;;;3.65;;
37485;SDS011;23341;50.296;18.960;2023-07-20T00:49:11;5.95;;;3.20;;
37485;SDS011;23341;50.296;18.960;2023-07-20T00:54:14;3.22;;;2.70;;
37485;SDS011;23341;50.296;18.960;2023-07-20T00:59:18;7.72;;;2.80;;
37485;SDS011;23341;50.296;18.960;2023-07-20T01:04:23;5.10;;;3.10;;
37485;SDS011;23341;50.296;18.960;2023-07-20T01:09:31;3.05;;;2.75;;
37485;SDS011;23341;50.296;18.960;2023-07-20T01:14:40;6.57;;;2.92;;
37485;SDS011;23341;50.296;18.960;2023-07-20T01:19:46;4.18;;;2.72;;
37485;SDS011;23341;50.296;18.960;2023-07-20T01:24:56;4.32;;;2.92;;
37485;SDS011;23341;50.296;18.960;2023-07-20T01:35:54;3.50;;;2.83;;
37485;SDS011;23341;50.296;18.960;2023-07-20T01:41:00;3.83;;;3.33;;
37485;SDS011;23341;50.296;18.960;2023-07-20T01:46:05;6.80;;;3.10;;
37485;SDS011;23341;50.296;18.960;2023-07-20T01:51:10;7.25;;;2.95;;
37485;SDS011;23341;50.296;18.960;2023-07-20T01:56:14;3.65;;;2.95;;
37485;SDS011;23341;50.296;18.960;2023-07-20T02:01:18;8.23;;;3.50;;
37485;SDS011;23341;50.296;18.960;2023-07-20T02:06:26;5.05;;;3.03;;
37485;SDS011;23341;50.296;18.960;2023-07-20T02:11:30;4.78;;;2.97;;
37485;SDS011;23341;50.296;18.960;2023-07-20T02:16:33;5.13;;;3.53;;
37485;SDS011;23341;50.296;18.960;2023-07-20T02:21:39;8.95;;;4.35;;
37485;SDS011;23341;50.296;18.960;2023-07-20T02:26:42;6.90;;;3.22;;
37485;SDS011;23341;50.296;18.960;2023-07-20T02:31:46;5.07;;;3.45;;
37485;SDS011;23341;50.296;18.960;2023-07-20T02:36:51;5.60;;;3.58;;
37485;SDS011;23341;50.296;18.960;2023-07-20T02:41:55;5.13;;;3.28;;
37485;SDS011;23341;50.296;18.960;2023-07-20T02:46:59;4.28;;;3.85;;
37485;SDS011;23341;50.296;18.960;2023-07-20T02:52:04;7.70;;;4.15;;
37485;SDS011;23341;50.296;18.960;2023-07-20T02:57:08;6.45;;;4.75;;
37485;SDS011;23341;50.296;18.960;2023-07-20T03:08:01;5.63;;;3.92;;
37485;SDS011;23341;50.296;18.960;2023-07-20T03:13:05;3.30;;;3.00;;
37485;SDS011;23341;50.296;18.960;2023-07-20T03:18:09;4.07;;;3.05;;
37485;SDS011;23341;50.296;18.960;2023-07-20T03:23:14;5.60;;;2.22;;
37485;SDS011;23341;50.296;18.960;2023-07-20T03:28:19;3.92;;;2.60;;
37485;SDS011;23341;50.296;18.960;2023-07-20T03:33:24;4.82;;;2.67;;
37485;SDS011;23341;50.296;18.960;2023-07-20T03:38:33;5.20;;;3.40;;
37485;SDS011;23341;50.296;18.960;2023-07-20T03:43:37;2.83;;;2.55;;
37485;SDS011;23341;50.296;18.960;2023-07-20T03:48:41;3.20;;;2.65;;
37485;SDS011;23341;50.296;18.960;2023-07-20T03:53:46;3.10;;;2.75;;
37485;SDS011;23341;50.296;18.960;2023-07-20T03:58:49;2.88;;;2.58;;
37485;SDS011;23341;50.296;18.960;2023-07-20T04:03:53;4.47;;;3.10;;
37485;SDS011;23341;50.296;18.960;2023-07-20T04:08:59;4.60;;;3.13;;
37485;SDS011;23341;50.296;18.960;2023-07-20T04:14:03;5.30;;;2.67;;
37485;SDS011;23341;50.296;18.960;2023-07-20T04:19:06;6.80;;;2.70;;
37485;SDS011;23341;50.296;18.960;2023-07-20T04:24:12;4.70;;;2.10;;
37485;SDS011;23341;50.296;18.960;2023-07-20T04:29:16;3.78;;;2.78;;
37485;SDS011;23341;50.296;18.960;2023-07-20T04:34:20;4.35;;;2.42;;
37485;SDS011;23341;50.296;18.960;2023-07-20T04:39:25;2.95;;;2.42;;
37485;SDS011;23341;50.296;18.960;2023-07-20T04:44:37;3.83;;;2.60;;
37485;SDS011;23341;50.296;18.960;2023-07-20T04:49:42;27.23;;;5.45;;
37485;SDS011;23341;50.296;18.960;2023-07-20T04:54:47;8.35;;;3.00;;
37485;SDS011;23341;50.296;18.960;2023-07-20T04:59:51;4.20;;;2.63;;
37485;SDS011;23341;50.296;18.960;2023-07-20T05:04:55;4.78;;;4.22;;
37485;SDS011;23341;50.296;18.960;2023-07-20T05:10:00;3.58;;;2.60;;
37485;SDS011;23341;50.296;18.960;2023-07-20T05:15:04;6.63;;;3.58;;
37485;SDS011;23341;50.296;18.960;2023-07-20T05:20:10;8.15;;;5.13;;
37485;SDS011;23341;50.296;18.960;2023-07-20T05:25:16;6.05;;;5.45;;
37485;SDS011;23341;50.296;18.960;2023-07-20T05:30:21;8.30;;;5.15;;
37485;SDS011;23341;50.296;18.960;2023-07-20T05:35:25;9.75;;;5.10;;
37485;SDS011;23341;50.296;18.960;2023-07-20T05:40:30;6.45;;;3.67;;
37485;SDS011;23341;50.296;18.960;2023-07-20T05:45:34;5.25;;;4.00;;
37485;SDS011;23341;50.296;18.960;2023-07-20T05:50:38;5.25;;;4.75;;
37485;SDS011;23341;50.296;18.960;2023-07-20T05:55:52;5.93;;;3.97;;
37485;SDS011;23341;50.296;18.960;2023-07-20T06:00:56;3.83;;;3.38;;
37485;SDS011;23341;50.296;18.960;2023-07-20T06:06:00;4.68;;;4.20;;
37485;SDS011;23341;50.296;18.960;2023-07-20T06:11:06;3.70;;;3.10;;
37485;SDS011;23341;50.296;18.960;2023-07-20T06:16:09;7.18;;;2.90;;
37485;SDS011;23341;50.296;18.960;2023-07-20T06:21:13;4.55;;;2.80;;
37485;SDS011;23341;50.296;18.960;2023-07-20T06:26:18;3.25;;;2.30;;
37485;SDS011;23341;50.296;18.960;2023-07-20T06:31:23;4.72;;;2.55;;
37485;SDS011;23341;50.296;18.960;2023-07-20T06:36:27;3.67;;;2.40;;
37485;SDS011;23341;50.296;18.960;2023-07-20T06:41:32;4.72;;;1.77;;
37485;SDS011;23341;50.296;18.960;2023-07-20T06:46:39;2.85;;;2.20;;
37485;SDS011;23341;50.296;18.960;2023-07-20T06:51:43;3.33;;;2.00;;
37485;SDS011;23341;50.296;18.960;2023-07-20T06:56:48;3.00;;;2.15;;
37485;SDS011;23341;50.296;18.960;2023-07-20T07:02:11;2.17;;;1.27;;
37485;SDS011;23341;50.296;18.960;2023-07-20T07:07:16;4.05;;;1.73;;
37485;SDS011;23341;50.296;18.960;2023-07-20T07:12:24;2.53;;;1.80;;
37485;SDS011;23341;50.296;18.960;2023-07-20T07:17:28;3.13;;;1.38;;
37485;SDS011;23341;50.296;18.960;2023-07-20T07:22:36;2.25;;;1.38;;
37485;SDS011;23341;50.296;18.960;2023-07-20T07:27:41;3.20;;;1.52;;
37485;SDS011;23341;50.296;18.960;2023-07-20T07:32:45;2.00;;;1.33;;
37485;SDS011;23341;50.296;18.960;2023-07-20T07:37:49;4.30;;;1.30;;
37485;SDS011;23341;50.296;18.960;2023-07-20T07:43:15;1.60;;;1.00;;
37485;SDS011;23341;50.296;18.960;2023-07-20T07:48:30;1.60;;;1.48;;
37485;SDS011;23341;50.296;18.960;2023-07-20T07:53:34;2.53;;;1.30;;
37485;SDS011;23341;50.296;18.960;2023-07-20T07:58:40;2.28;;;1.45;;
37485;SDS011;23341;50.296;18.960;2023-07-20T08:03:44;1.70;;;1.50;;
37485;SDS011;23341;50.296;18.960;2023-07-20T08:08:49;4.47;;;1.48;;
37485;SDS011;23341;50.296;18.960;2023-07-20T08:13:55;2.97;;;1.70;;
37485;SDS011;23341;50.296;18.960;2023-07-20T08:18:59;4.15;;;2.83;;
37485;SDS011;23341;50.296;18.960;2023-07-20T08:24:03;7.97;;;3.00;;
37485;SDS011;23341;50.296;18.960;2023-07-20T08:29:08;4.32;;;3.05;;
37485;SDS011;23341;50.296;18.960;2023-07-20T08:34:12;4.75;;;3.72;;
37485;SDS011;23341;50.296;18.960;2023-07-20T08:39:32;5.97;;;3.60;;
37485;SDS011;23341;50.296;18.960;2023-07-20T08:44:38;5.97;;;5.35;;
37485;SDS011;23341;50.296;18.960;2023-07-20T08:49:45;8.20;;;6.32;;
37485;SDS011;23341;50.296;18.960;2023-07-20T08:54:52;11.35;;;5.55;;
37485;SDS011;23341;50.296;18.960;2023-07-20T08:59:58;6.43;;;5.82;;
37485;SDS011;23341;50.296;18.960;2023-07-20T09:05:05;5.60;;;5.03;;
37485;SDS011;23341;50.296;18.960;2023-07-20T09:10:12;7.00;;;5.80;;
37485;SDS011;23341;50.296;18.960;2023-07-20T09:15:21;9.20;;;5.32;;
37485;SDS011;23341;50.296;18.960;2023-07-20T09:20:25;5.68;;;4.80;;
37485;SDS011;23341;50.296;18.960;2023-07-20T09:25:29;5.88;;;4.80;;
37485;SDS011;23341;50.296;18.960;2023-07-20T09:30:35;11.20;;;4.68;;
37485;SDS011;23341;50.296;18.960;2023-07-20T09:35:40;9.27;;;5.20;;
37485;SDS011;23341;50.296;18.960;2023-07-20T09:40:56;5.07;;;4.57;;
37485;SDS011;23341;50.296;18.960;2023-07-20T09:46:04;11.10;;;4.75;;
37485;SDS011;23341;50.296;18.960;2023-07-20T09:51:09;8.27;;;5.72;;
37485;SDS011;23341;50.296;18.960;2023-07-20T09:56:14;11.30;;;5.95;;
37485;SDS011;23341;50.296;18.960;2023-07-20T10:01:24;8.25;;;6.47;;
37485;SDS011;23341;50.296;18.960;2023-07-20T10:11:39;8.35;;;5.43;;
37485;SDS011;23341;50.296;18.960;2023-07-20T10:16:49;5.50;;;5.00;;
37485;SDS011;23341;50.296;18.960;2023-07-20T10:21:56;4.30;;;3.35;;
37485;SDS011;23341;50.296;18.960;2023-07-20T10:27:05;3.65;;;3.35;;
37485;SDS011;23341;50.296;18.960;2023-07-20T10:32:11;3.38;;;2.92;;
37485;SDS011;23341;50.296;18.960;2023-07-20T10:37:30;3.33;;;2.33;;
37485;SDS011;23341;50.296;18.960;2023-07-20T10:42:49;2.33;;;2.13;;
37485;SDS011;23341;50.296;18.960;2023-07-20T10:47:56;3.30;;;2.40;;
37485;SDS011;23341;50.296;18.960;2023-07-20T10:53:04;5.50;;;2.15;;
37485;SDS011;23341;50.296;18.960;2023-07-20T10:58:13;4.15;;;2.08;;
37485;SDS011;23341;50.296;18.960;2023-07-20T11:03:27;2.70;;;1.70;;
37485;SDS011;23341;50.296;18.960;2023-07-20T11:08:40;4.70;;;2.00;;
37485;SDS011;23341;50.296;18.960;2023-07-20T11:13:53;2.72;;;1.92;;
37485;SDS011;23341;50.296;18.960;2023-07-20T11:18:59;5.18;;;2.00;;
37485;SDS011;23341;50.296;18.960;2023-07-20T11:24:04;4.80;;;1.85;;
37485;SDS011;23341;50.296;18.960;2023-07-20T11:29:08;2.85;;;1.40;;
37485;SDS011;23341;50.296;18.960;2023-07-20T11:34:29;6.63;;;3.05;;
37485;SDS011;23341;50.296;18.960;2023-07-20T11:39:33;3.75;;;1.63;;
37485;SDS011;23341;50.296;18.960;2023-07-20T11:44:38;5.75;;;1.95;;
37485;SDS011;23341;50.296;18.960;2023-07-20T11:49:44;4.88;;;1.60;;
37485;SDS011;23341;50.296;18.960;2023-07-20T11:54:51;4.50;;;2.13;;
37485;SDS011;23341;50.296;18.960;2023-07-20T11:59:56;1.70;;;1.60;;
37485;SDS011;23341;50.296;18.960;2023-07-20T12:05:03;4.97;;;1.60;;
37485;SDS011;23341;50.296;18.960;2023-07-20T12:10:08;4.93;;;1.60;;
37485;SDS011;23341;50.296;18.960;2023-07-20T12:15:14;2.55;;;1.75;;
37485;SDS011;23341;50.296;18.960;2023-07-20T12:20:27;1.73;;;1.60;;
37485;SDS011;23341;50.296;18.960;2023-07-20T12:25:32;2.78;;;1.50;;
37485;SDS011;23341;50.296;18.960;2023-07-20T12:30:44;2.95;;;1.52;;
37485;SDS011;23341;50.296;18.960;2023-07-20T12:35:50;2.67;;;2.15;;
37485;SDS011;23341;50.296;18.960;2023-07-20T12:40:58;2.92;;;1.65;;
37485;SDS011;23341;50.296;18.960;2023-07-20T12:46:03;3.25;;;1.50;;
37485;SDS011;23341;50.296;18.960;2023-07-20T12:51:08;1.58;;;1.40;;
37485;SDS011;23341;50.296;18.960;2023-07-20T12:56:14;3.47;;;1.67;;
37485;SDS011;23341;50.296;18.960;2023-07-20T13:01:20;3.13;;;1.85;;
37485;SDS011;23341;50.296;18.960;2023-07-20T13:06:26;7.00;;;1.63;;
37485;SDS011;23341;50.296;18.960;2023-07-20T13:11:30;4.78;;;2.00;;
37485;SDS011;23341;50.296;18.960;2023-07-20T13:16:34;4.75;;;1.80;;
37485;SDS011;23341;50.296;18.960;2023-07-20T13:21:39;3.17;;;1.20;;
37485;SDS011;23341;50.296;18.960;2023-07-20T13:26:44;5.57;;;1.50;;
37485;SDS011;23341;50.296;18.960;2023-07-20T13:31:47;3.08;;;1.55;;
37485;SDS011;23341;50.296;18.960;2023-07-20T13:36:54;2.20;;;1.63;;
37485;SDS011;23341;50.296;18.960;2023-07-20T13:41:58;1.80;;;1.55;;
37485;SDS011;23341;50.296;18.960;2023-07-20T13:47:05;5.18;;;1.27;;
37485;SDS011;23341;50.296;18.960;2023-07-20T13:52:13;5.53;;;1.70;;
37485;SDS011;23341;50.296;18.960;2023-07-20T13:57:20;6.00;;;3.22;;
37485;SDS011;23341;50.296;18.960;2023-07-20T14:02:23;10.20;;;7.20;;
37485;SDS011;23341;50.296;18.960;2023-07-20T14:07:31;5.70;;;2.05;;
37485;SDS011;23341;50.296;18.960;2023-07-20T14:12:35;2.90;;;2.05;;
37485;SDS011;23341;50.296;18.960;2023-07-20T14:17:39;2.08;;;1.30;;
37485;SDS011;23341;50.296;18.960;2023-07-20T14:22:44;7.93;;;1.50;;
37485;SDS011;23341;50.296;18.960;2023-07-20T14:27:52;1.90;;;1.33;;
37485;SDS011;23341;50.296;18.960;2023-07-20T14:32:55;2.75;;;1.27;;
37485;SDS011;23341;50.296;18.960;2023-07-20T14:38:01;6.65;;;1.38;;
37485;SDS011;23341;50.296;18.960;2023-07-20T14:43:05;5.10;;;1.55;;
37485;SDS011;23341;50.296;18.960;2023-07-20T14:48:08;1.50;;;1.00;;
37485;SDS011;23341;50.296;18.960;2023-07-20T14:53:14;1.45;;;1.30;;
37485;SDS011;23341;50.296;18.960;2023-07-20T14:58:20;3.55;;;1.60;;
37485;SDS011;23341;50.296;18.960;2023-07-20T15:03:24;1.20;;;0.93;;
37485;SDS011;23341;50.296;18.960;2023-07-20T15:08:29;1.38;;;1.00;;
37485;SDS011;23341;50.296;18.960;2023-07-20T15:13:34;3.10;;;1.08;;
37485;SDS011;23341;50.296;18.960;2023-07-20T15:18:38;3.25;;;1.75;;
37485;SDS011;23341;50.296;18.960;2023-07-20T15:23:51;8.90;;;1.95;;
37485;SDS011;23341;50.296;18.960;2023-07-20T15:28:54;3.22;;;1.58;;
37485;SDS011;23341;50.296;18.960;2023-07-20T15:33:58;6.53;;;1.60;;
37485;SDS011;23341;50.296;18.960;2023-07-20T15:39:04;3.25;;;1.73;;
37485;SDS011;23341;50.296;18.960;2023-07-20T15:44:08;2.67;;;1.33;;
37485;SDS011;23341;50.296;18.960;2023-07-20T15:49:12;1.63;;;1.52;;
37485;SDS011;23341;50.296;18.960;2023-07-20T15:54:17;1.92;;;1.40;;
37485;SDS011;23341;50.296;18.960;2023-07-20T15:59:21;2.55;;;1.33;;
37485;SDS011;23341;50.296;18.960;2023-07-20T16:04:25;1.58;;;1.33;;
37485;SDS011;23341;50.296;18.960;2023-07-20T16:09:30;1.90;;;1.30;;
37485;SDS011;23341;50.296;18.960;2023-07-20T16:14:34;1.60;;;1.50;;
37485;SDS011;23341;50.296;18.960;2023-07-20T16:19:40;2.72;;;1.27;;
37485;SDS011;23341;50.296;18.960;2023-07-20T16:24:45;3.40;;;1.83;;
37485;SDS011;23341;50.296;18.960;2023-07-20T16:29:49;1.65;;;1.40;;
37485;SDS011;23341;50.296;18.960;2023-07-20T16:34:53;1.55;;;1.45;;
37485;SDS011;23341;50.296;18.960;2023-07-20T16:39:59;2.30;;;1.20;;
37485;SDS011;23341;50.296;18.960;2023-07-20T16:45:03;1.20;;;1.10;;
37485;SDS011;23341;50.296;18.960;2023-07-20T16:50:08;1.65;;;1.55;;
37485;SDS011;23341;50.296;18.960;2023-07-20T16:55:14;1.10;;;1.00;;
37485;SDS011;23341;50.296;18.960;2023-07-20T17:00:18;1.65;;;1.48;;
37485;SDS011;23341;50.296;18.960;2023-07-20T17:05:24;2.15;;;1.48;;
37485;SDS011;23341;50.296;18.960;2023-07-20T17:10:29;2.75;;;1.50;;
37485;SDS011;23341;50.296;18.960;2023-07-20T17:15:33;3.40;;;1.73;;
37485;SDS011;23341;50.296;18.960;2023-07-20T17:20:38;1.80;;;1.67;;
37485;SDS011;23341;50.296;18.960;2023-07-20T17:25:47;4.32;;;1.50;;
37485;SDS011;23341;50.296;18.960;2023-07-20T17:30:57;9.85;;;1.77;;
37485;SDS011;23341;50.296;18.960;2023-07-20T17:36:02;1.40;;;1.30;;
37485;SDS011;23341;50.296;18.960;2023-07-20T17:41:10;2.30;;;1.80;;
37485;SDS011;23341;50.296;18.960;2023-07-20T17:46:17;3.80;;;1.23;;
37485;SDS011;23341;50.296;18.960;2023-07-20T17:51:23;2.42;;;1.88;;
37485;SDS011;23341;50.296;18.960;2023-07-20T17:56:30;1.67;;;1.50;;
37485;SDS011;23341;50.296;18.960;2023-07-20T18:01:35;4.57;;;1.58;;
37485;SDS011;23341;50.296;18.960;2023-07-20T18:06:39;2.47;;;1.48;;
37485;SDS011;23341;50.296;18.960;2023-07-20T18:11:46;3.80;;;2.10;;
37485;SDS011;23341;50.296;18.960;2023-07-20T18:16:50;4.47;;;2.00;;
37485;SDS011;23341;50.296;18.960;2023-07-20T18:21:55;7.00;;;2.95;;
37485;SDS011;23341;50.296;18.960;2023-07-20T18:27:00;7.30;;;3.83;;
37485;SDS011;23341;50.296;18.960;2023-07-20T18:32:04;6.05;;;2.95;;
37485;SDS011;23341;50.296;18.960;2023-07-20T18:37:08;6.53;;;3.58;;
37485;SDS011;23341;50.296;18.960;2023-07-20T18:42:15;7.63;;;3.20;;
37485;SDS011;23341;50.296;18.960;2023-07-20T18:47:19;5.45;;;2.95;;
37485;SDS011;23341;50.296;18.960;2023-07-20T18:52:23;6.13;;;3.30;;
37485;SDS011;23341;50.296;18.960;2023-07-20T18:57:29;8.18;;;3.03;;
37485;SDS011;23341;50.296;18.960;2023-07-20T19:02:33;8.10;;;3.30;;
37485;SDS011;23341;50.296;18.960;2023-07-20T19:07:37;6.55;;;4.45;;
37485;SDS011;23341;50.296;18.960;2023-07-20T19:12:42;6.30;;;2.75;;
37485;SDS011;23341;50.296;18.960;2023-07-20T19:17:46;13.35;;;9.15;;
37485;SDS011;23341;50.296;18.960;2023-07-20T19:22:50;3.47;;;3.17;;
37485;SDS011;23341;50.296;18.960;2023-07-20T19:27:55;3.45;;;2.38;;
37485;SDS011;23341;50.296;18.960;2023-07-20T19:32:59;5.47;;;2.75;;
37485;SDS011;23341;50.296;18.960;2023-07-20T19:38:03;5.97;;;2.65;;
37485;SDS011;23341;50.296;18.960;2023-07-20T19:43:08;5.50;;;2.50;;
37485;SDS011;23341;50.296;18.960;2023-07-20T19:48:15;6.30;;;3.75;;
37485;SDS011;23341;50.296;18.960;2023-07-20T19:53:22;6.65;;;3.55;;
37485;SDS011;23341;50.296;18.960;2023-07-20T19:58:30;5.15;;;4.07;;
37485;SDS011;23341;50.296;18.960;2023-07-20T20:03:37;8.48;;;4.30;;
37485;SDS011;23341;50.296;18.960;2023-07-20T20:08:42;6.63;;;3.72;;
37485;SDS011;23341;50.296;18.960;2023-07-20T20:13:47;6.28;;;4.28;;
37485;SDS011;23341;50.296;18.960;2023-07-20T20:18:52;5.28;;;3.17;;
37485;SDS011;23341;50.296;18.960;2023-07-20T20:23:56;7.53;;;3.08;;
37485;SDS011;23341;50.296;18.960;2023-07-20T20:29:01;4.22;;;3.00;;
37485;SDS011;23341;50.296;18.960;2023-07-20T20:34:05;4.13;;;3.83;;
37485;SDS011;23341;50.296;18.960;2023-07-20T20:39:09;5.10;;;2.75;;
37485;SDS011;23341;50.296;18.960;2023-07-20T20:44:16;6.00;;;2.42;;
37485;SDS011;23341;50.296;18.960;2023-07-20T20:49:28;3.25;;;2.95;;
37485;SDS011;23341;50.296;18.960;2023-07-20T20:54:32;3.75;;;3.10;;
37485;SDS011;23341;50.296;18.960;2023-07-20T20:59:38;5.68;;;3.50;;
37485;SDS011;23341;50.296;18.960;2023-07-20T21:04:43;5.55;;;3.60;;
37485;SDS011;23341;50.296;18.960;2023-07-20T21:09:48;6.65;;;4.00;;
37485;SDS011;23341;50.296;18.960;2023-07-20T21:14:53;8.93;;;4.95;;
37485;SDS011;23341;50.296;18.960;2023-07-20T21:20:00;6.72;;;4.70;;
37485;SDS011;23341;50.296;18.960;2023-07-20T21:25:04;7.00;;;3.88;;
37485;SDS011;23341;50.296;18.960;2023-07-20T21:30:11;6.10;;;3.75;;
37485;SDS011;23341;50.296;18.960;2023-07-20T21:35:15;4.82;;;3.40;;
37485;SDS011;23341;50.296;18.960;2023-07-20T21:40:19;6.05;;;3.88;;
37485;SDS011;23341;50.296;18.960;2023-07-20T21:45:25;7.45;;;3.88;;
37485;SDS011;23341;50.296;18.960;2023-07-20T21:50:29;5.53;;;4.13;;
37485;SDS011;23341;50.296;18.960;2023-07-20T21:55:33;7.07;;;3.70;;
37485;SDS011;23341;50.296;18.960;2023-07-20T22:00:38;4.63;;;3.10;;
37485;SDS011;23341;50.296;18.960;2023-07-20T22:05:42;7.97;;;3.60;;
37485;SDS011;23341;50.296;18.960;2023-07-20T22:10:47;3.63;;;3.33;;
37485;SDS011;23341;50.296;18.960;2023-07-20T22:15:55;7.13;;;3.67;;
37485;SDS011;23341;50.296;18.960;2023-07-20T22:20:59;6.60;;;3.00;;
37485;SDS011;23341;50.296;18.960;2023-07-20T22:26:05;3.45;;;3.15;;
37485;SDS011;23341;50.296;18.960;2023-07-20T22:31:10;4.00;;;3.00;;
37485;SDS011;23341;50.296;18.960;2023-07-20T22:36:15;5.57;;;2.65;;
37485;SDS011;23341;50.296;18.960;2023-07-20T22:41:18;3.08;;;2.78;;
37485;SDS011;23341;50.296;18.960;2023-07-20T22:46:24;4.50;;;2.95;;
37485;SDS011;23341;50.296;18.960;2023-07-20T22:51:28;3.42;;;2.67;;
37485;SDS011;23341;50.296;18.960;2023-07-20T22:56:32;4.63;;;2.97;;
37485;SDS011;23341;50.296;18.960;2023-07-20T23:01:38;4.63;;;2.67;;
37485;SDS011;23341;50.296;18.960;2023-07-20T23:06:45;3.55;;;3.30;;
37485;SDS011;23341;50.296;18.960;2023-07-20T23:11:49;3.25;;;2.95;;
37485;SDS011;23341;50.296;18.960;2023-07-20T23:16:54;7.93;;;3.50;;
37485;SDS011;23341;50.296;18.960;2023-07-20T23:21:58;4.80;;;3.25;;
37485;SDS011;23341;50.296;18.960;2023-07-20T23:27:02;5.13;;;3.63;;
37485;SDS011;23341;50.296;18.960;2023-07-20T23:32:08;4.38;;;3.83;;
37485;SDS011;23341;50.296;18.960;2023-07-20T23:37:12;4.97;;;3.30;;
37485;SDS011;23341;50.296;18.960;2023-07-20T23:42:16;6.10;;;3.70;;
37485;SDS011;23341;50.296;18.960;2023-07-20T23:47:21;6.68;;;3.38;;
37485;SDS011;23341;50.296;18.960;2023-07-20T23:52:25;5.60;;;3.60;;
37485;SDS011;23341;50.296;18.960;2023-07-20T23:57:29;5.07;;;3.40;;
